createdAt,value
2018-06-05T00:01:59.107Z,60.36
2018-06-05T00:06:51.997Z,60.71
2018-06-05T00:11:45.025Z,60.74
2018-06-05T00:16:37.925Z,60.63
2018-06-05T00:21:30.786Z,60.95
2018-06-05T00:26:23.714Z,61.18
2018-06-05T00:31:16.562Z,61.44
2018-06-05T00:36:09.442Z,61.69
2018-06-05T00:41:02.421Z,61.81
2018-06-05T00:45:55.463Z,62.14
2018-06-05T00:50:48.311Z,62.57
2018-06-05T00:55:41.253Z,62.48
2018-06-05T01:00:34.157Z,62.07
2018-06-05T01:05:27.093Z,63.09
2018-06-05T01:10:19.996Z,62.52
2018-06-05T01:15:12.826Z,63.50
2018-06-05T01:20:05.812Z,63.72
2018-06-05T01:24:58.648Z,62.60
2018-06-05T01:29:51.581Z,62.96
2018-06-05T01:34:44.630Z,63.64
2018-06-05T01:39:37.552Z,63.34
2018-06-05T01:44:30.453Z,63.66
2018-06-05T01:49:23.457Z,63.74
2018-06-05T01:54:16.441Z,63.41
2018-06-05T01:59:09.398Z,63.36
2018-06-05T02:04:02.224Z,63.50
2018-06-05T02:08:55.153Z,63.50
2018-06-05T02:13:48.048Z,63.50
2018-06-05T02:18:40.909Z,64.07
2018-06-05T02:23:33.796Z,64.58
2018-06-05T02:28:26.640Z,64.12
2018-06-05T02:33:19.573Z,63.82
2018-06-05T02:38:12.537Z,64.86
2018-06-05T02:43:05.535Z,64.52
2018-06-05T02:47:58.443Z,64.84
2018-06-05T02:52:51.294Z,64.59
2018-06-05T02:57:44.236Z,63.89
2018-06-05T03:02:37.098Z,64.40
2018-06-05T03:07:30.106Z,64.42
2018-06-05T03:12:23.004Z,64.15
2018-06-05T03:17:16.039Z,64.96
2018-06-05T03:22:08.875Z,64.04
2018-06-05T03:27:01.907Z,64.22
2018-06-05T03:31:54.748Z,64.10
2018-06-05T03:36:47.630Z,63.75
2018-06-05T03:41:40.529Z,63.91
2018-06-05T03:46:33.443Z,64.58
2018-06-05T03:51:26.319Z,63.91
2018-06-05T03:56:19.348Z,64.10
2018-06-05T04:01:12.321Z,64.07
2018-06-05T04:06:05.452Z,64.47
2018-06-05T04:10:58.454Z,64.17
2018-06-05T04:15:51.396Z,64.23
2018-06-05T04:20:44.214Z,64.25
2018-06-05T04:25:37.050Z,64.69
2018-06-05T04:30:30.033Z,64.14
2018-06-05T04:35:22.973Z,64.37
2018-06-05T04:40:15.965Z,64.23
2018-06-05T04:45:08.923Z,64.98
2018-06-05T04:50:01.813Z,64.58
2018-06-05T04:54:54.680Z,64.14
2018-06-05T04:59:47.658Z,64.76
2018-06-05T05:04:40.585Z,63.76
2018-06-05T05:09:33.457Z,63.80
2018-06-05T05:14:26.329Z,63.51
2018-06-05T05:19:19.169Z,63.97
2018-06-05T05:24:12.069Z,64.11
2018-06-05T05:29:04.963Z,63.28
2018-06-05T05:33:57.961Z,62.91
2018-06-05T05:38:50.904Z,63.46
2018-06-05T05:43:43.838Z,63.48
2018-06-05T05:48:36.850Z,63.09
2018-06-05T05:53:29.674Z,63.60
2018-06-05T05:58:22.684Z,62.77
2018-06-05T06:03:15.639Z,62.81
2018-06-05T06:08:08.528Z,63.39
2018-06-05T06:13:01.394Z,63.71
2018-06-05T06:17:54.209Z,63.36
2018-06-05T06:22:46.994Z,63.35
2018-06-05T06:27:40.068Z,62.93
2018-06-05T06:32:32.989Z,63.17
2018-06-05T06:37:25.930Z,63.46
2018-06-05T06:42:18.893Z,63.68
2018-06-05T06:47:11.864Z,63.31
2018-06-05T06:52:04.777Z,62.33
2018-06-05T06:56:57.646Z,62.65
2018-06-05T07:01:50.569Z,62.08
2018-06-05T07:06:43.443Z,62.48
2018-06-05T07:11:36.723Z,61.55
2018-06-05T07:16:29.605Z,61.25
2018-06-05T07:21:22.587Z,62.50
2018-06-05T07:26:15.536Z,61.88
2018-06-05T07:31:08.480Z,61.83
2018-06-05T07:36:01.765Z,61.60
2018-06-05T07:40:54.671Z,61.76
2018-06-05T07:45:47.641Z,62.39
2018-06-05T07:50:40.657Z,61.99
2018-06-05T07:55:33.737Z,61.83
2018-06-05T08:00:26.648Z,62.77
2018-06-05T08:05:19.515Z,62.84
2018-06-05T08:10:12.461Z,62.00
2018-06-05T08:15:06.590Z,62.93
2018-06-05T08:19:59.553Z,61.97
2018-06-05T08:24:52.517Z,61.99
2018-06-05T08:29:45.496Z,61.71
2018-06-05T08:34:38.464Z,62.52
2018-06-05T08:39:31.373Z,62.17
2018-06-05T08:44:24.318Z,62.70
2018-06-05T08:49:17.249Z,61.72
2018-06-05T08:55:13.798Z,61.64
2018-06-05T09:00:06.702Z,61.81
2018-06-05T09:04:59.774Z,62.23
2018-06-05T09:09:52.742Z,62.92
2018-06-05T09:14:45.713Z,62.65
2018-06-05T09:19:38.597Z,62.61
2018-06-05T09:24:31.506Z,61.76
2018-06-05T09:29:24.688Z,62.70
2018-06-05T09:34:17.731Z,62.55
2018-06-05T09:39:10.699Z,62.15
2018-06-05T09:44:04.198Z,61.74
2018-06-05T09:48:57.157Z,62.49
2018-06-05T09:53:50.079Z,62.47
2018-06-05T09:58:42.892Z,62.22
2018-06-05T10:03:35.816Z,61.73
2018-06-05T10:08:28.834Z,62.30
2018-06-05T10:13:21.814Z,62.29
2018-06-05T10:18:14.843Z,61.24
2018-06-05T10:23:07.926Z,61.73
2018-06-05T10:28:00.786Z,62.07
2018-06-05T10:32:53.727Z,61.49
2018-06-05T10:37:46.694Z,61.60
2018-06-05T10:42:39.676Z,60.94
2018-06-05T10:47:32.567Z,61.42
2018-06-05T10:52:25.441Z,61.83
2018-06-05T10:57:18.353Z,61.80
2018-06-05T11:02:11.360Z,61.57
2018-06-05T11:07:04.471Z,60.96
2018-06-05T11:11:57.359Z,61.35
2018-06-05T11:16:50.440Z,61.23
2018-06-05T11:21:43.356Z,60.12
2018-06-05T11:26:36.266Z,60.30
2018-06-05T11:31:29.137Z,60.59
2018-06-05T11:36:22.023Z,59.28
2018-06-05T11:41:14.955Z,58.81
2018-06-05T11:46:07.866Z,58.61
2018-06-05T11:51:00.823Z,58.35
2018-06-05T11:55:53.757Z,58.09
2018-06-05T12:00:46.721Z,57.93
2018-06-05T12:05:39.589Z,55.28
2018-06-05T12:10:32.512Z,54.69
2018-06-05T12:15:25.408Z,54.52
2018-06-05T12:20:18.329Z,54.84
2018-06-05T12:25:11.203Z,55.63
2018-06-05T12:30:04.540Z,55.51
2018-06-05T12:34:57.446Z,54.97
2018-06-05T12:39:50.332Z,54.37
2018-06-05T12:44:44.089Z,53.49
2018-06-05T12:49:36.999Z,53.16
2018-06-05T12:54:29.849Z,52.83
2018-06-05T12:59:22.740Z,52.03
2018-06-05T13:04:15.784Z,51.83
2018-06-05T13:09:08.717Z,52.06
2018-06-05T13:14:01.630Z,51.16
2018-06-05T13:18:54.529Z,52.04
2018-06-05T13:23:47.573Z,52.02
2018-06-05T13:28:43.061Z,51.84
2018-06-05T13:33:36.131Z,50.40
2018-06-05T13:38:29.142Z,49.71
2018-06-05T13:43:22.017Z,49.82
2018-06-05T13:48:14.890Z,50.56
2018-06-05T13:53:07.952Z,49.95
2018-06-05T13:58:01.149Z,49.23
2018-06-05T14:02:54.038Z,49.94
2018-06-05T14:07:51.925Z,49.07
2018-06-05T14:12:44.864Z,49.02
2018-06-05T14:17:37.795Z,49.06
2018-06-05T14:22:30.662Z,49.79
2018-06-05T14:27:23.722Z,50.24
2018-06-05T14:32:16.784Z,49.71
2018-06-05T14:37:09.679Z,49.70
2018-06-05T14:42:02.890Z,49.03
2018-06-05T14:46:55.962Z,48.46
2018-06-05T14:51:48.927Z,48.98
2018-06-05T14:56:41.867Z,48.59
2018-06-05T15:01:34.745Z,48.62
2018-06-05T15:06:27.634Z,48.15
2018-06-05T15:11:20.472Z,49.52
2018-06-05T15:16:13.460Z,49.22
2018-06-05T15:21:06.453Z,49.66
2018-06-05T15:25:59.448Z,49.53
2018-06-05T15:30:52.397Z,49.04
2018-06-05T15:35:45.232Z,49.32
2018-06-05T15:40:38.117Z,48.94
2018-06-05T15:45:31.094Z,47.89
2018-06-05T15:50:24.030Z,48.59
2018-06-05T15:55:16.945Z,47.71
2018-06-05T16:00:09.826Z,47.35
2018-06-05T16:05:02.726Z,47.92
2018-06-05T16:09:55.541Z,48.67
2018-06-05T16:14:48.473Z,48.14
2018-06-05T16:19:41.340Z,48.73
2018-06-05T16:24:34.263Z,49.11
2018-06-05T16:29:27.079Z,48.29
2018-06-05T16:34:19.941Z,47.92
2018-06-05T16:39:12.965Z,48.61
2018-06-05T16:44:05.790Z,48.54
2018-06-05T16:48:58.705Z,48.06
2018-06-05T16:53:51.597Z,46.41
2018-06-05T16:58:44.421Z,45.79
2018-06-05T17:03:37.421Z,45.63
2018-06-05T17:08:30.812Z,45.78
2018-06-05T17:13:23.641Z,45.95
2018-06-05T17:18:16.537Z,45.41
2018-06-05T17:23:09.483Z,46.27
2018-06-05T17:28:02.417Z,45.33
2018-06-05T17:32:55.361Z,44.78
2018-06-05T17:37:48.217Z,44.01
2018-06-05T17:42:41.142Z,42.04
2018-06-05T17:47:34.064Z,41.71
2018-06-05T17:52:26.878Z,40.16
2018-06-05T17:57:19.676Z,38.34
2018-06-05T18:02:12.610Z,37.21
2018-06-05T18:07:05.494Z,37.48
2018-06-05T18:11:58.345Z,37.19
2018-06-05T18:16:51.256Z,36.91
2018-06-05T18:21:44.071Z,35.02
2018-06-05T18:26:37.023Z,33.92
2018-06-05T18:31:29.903Z,32.88
2018-06-05T18:36:22.790Z,32.25
2018-06-05T18:41:15.748Z,31.69
2018-06-05T18:46:08.682Z,32.40
2018-06-05T18:51:05.156Z,32.78
2018-06-05T18:55:58.130Z,32.66
2018-06-05T19:00:51.132Z,33.96
2018-06-05T19:05:44.002Z,34.31
2018-06-05T19:10:36.966Z,35.20
2018-06-05T19:15:29.952Z,35.69
2018-06-05T19:20:22.938Z,35.61
2018-06-05T19:25:15.873Z,35.52
2018-06-05T19:30:08.745Z,35.89
2018-06-05T19:35:01.651Z,36.23
2018-06-05T19:39:54.541Z,36.20
2018-06-05T19:44:47.340Z,37.16
2018-06-05T19:49:40.171Z,37.25
2018-06-05T19:54:33.109Z,37.07
2018-06-05T19:59:25.986Z,37.63
2018-06-05T20:04:18.905Z,36.89
2018-06-05T20:09:11.742Z,36.13
2018-06-05T20:14:04.665Z,36.48
2018-06-05T20:18:57.580Z,36.22
2018-06-05T20:23:50.611Z,35.86
2018-06-05T20:28:43.521Z,36.10
2018-06-05T20:33:36.364Z,36.14
2018-06-05T20:38:29.205Z,36.13
2018-06-05T20:43:22.081Z,36.50
2018-06-05T20:48:15.090Z,37.56
2018-06-05T20:53:08.044Z,37.22
2018-06-05T20:58:00.957Z,38.27
2018-06-05T21:02:54.038Z,38.35
2018-06-05T21:07:46.871Z,38.35
2018-06-05T21:12:39.688Z,39.05
2018-06-05T21:17:32.534Z,39.25
2018-06-05T21:22:25.376Z,38.94
2018-06-05T21:27:18.219Z,38.47
2018-06-05T21:32:11.090Z,38.01
2018-06-05T21:37:04.302Z,38.64
2018-06-05T21:41:57.163Z,38.74
2018-06-05T21:46:50.327Z,39.32
2018-06-05T21:51:43.226Z,39.51
2018-06-05T21:56:36.165Z,39.97
2018-06-05T22:01:29.010Z,39.80
2018-06-05T22:06:21.862Z,40.00
2018-06-05T22:11:16.803Z,40.30
2018-06-05T22:16:09.786Z,40.40
2018-06-05T22:21:02.688Z,40.53
2018-06-05T22:25:57.870Z,40.77
2018-06-05T22:30:50.800Z,41.10
2018-06-05T22:35:43.713Z,41.56
2018-06-05T22:40:36.548Z,41.18
2018-06-05T22:45:29.432Z,41.89
2018-06-05T22:50:22.495Z,42.98
2018-06-05T22:55:15.321Z,42.97
2018-06-05T23:00:08.371Z,43.28
2018-06-05T23:05:01.317Z,43.33
2018-06-05T23:09:54.213Z,43.52
2018-06-05T23:14:47.113Z,43.26
2018-06-05T23:19:40.157Z,44.06
2018-06-05T23:24:33.027Z,43.46
2018-06-05T23:29:25.912Z,43.95
2018-06-05T23:34:18.880Z,44.36
2018-06-05T23:39:11.851Z,44.55
2018-06-05T23:44:04.763Z,44.66
2018-06-05T23:48:57.731Z,45.26
2018-06-05T23:53:50.702Z,44.87
2018-06-05T23:58:43.551Z,46.08
